createdAt,value
2022-12-05T00:00:38.501Z,87.22
2022-12-05T00:03:09.367Z,96.80
2022-12-05T00:05:40.959Z,82.15
2022-12-05T00:08:08.474Z,84.80
2022-12-05T00:10:39.660Z,74.68
2022-12-05T00:13:07.192Z,100.00
2022-12-05T00:15:41.775Z,96.22
2022-12-05T00:18:09.150Z,87.30
2022-12-05T00:20:36.494Z,79.00
2022-12-05T00:23:04.108Z,86.15
2022-12-05T00:25:37.933Z,95.63
2022-12-05T00:28:05.386Z,77.78
2022-12-05T00:30:33.166Z,82.78
2022-12-05T00:33:00.587Z,106.30
2022-12-05T00:35:28.049Z,86.47
2022-12-05T00:37:55.524Z,79.88
2022-12-05T00:40:22.788Z,72.78
2022-12-05T00:42:52.437Z,78.18
2022-12-05T00:45:20.063Z,76.57
2022-12-05T00:47:50.071Z,103.20
2022-12-05T00:50:21.045Z,79.28
2022-12-05T00:52:53.740Z,72.32
2022-12-05T00:55:21.279Z,88.45
2022-12-05T00:57:48.680Z,74.90
2022-12-05T01:00:16.319Z,78.88
2022-12-05T01:02:44.050Z,76.88
2022-12-05T01:05:15.455Z,67.57
2022-12-05T01:07:42.882Z,70.25
2022-12-05T01:16:36.129Z,77.35
2022-12-05T01:21:56.046Z,63.45
2022-12-05T01:27:07.713Z,65.85
2022-12-05T01:32:32.618Z,74.85
2022-12-05T01:34:59.796Z,70.85
2022-12-05T01:37:26.970Z,79.35
2022-12-05T01:39:54.209Z,80.93
2022-12-05T01:42:25.985Z,67.32
2022-12-05T01:45:04.905Z,67.07
2022-12-05T01:47:33.486Z,74.70
2022-12-05T01:50:01.021Z,73.07
2022-12-05T01:52:29.901Z,64.68
2022-12-05T01:54:59.483Z,82.40
2022-12-05T01:57:26.809Z,72.43
2022-12-05T01:59:56.601Z,119.18
2022-12-05T02:02:24.352Z,86.22
2022-12-05T02:05:11.774Z,73.57
2022-12-05T02:07:40.254Z,75.25
2022-12-05T02:10:08.025Z,93.18
2022-12-05T02:12:35.485Z,89.68
2022-12-05T02:15:11.055Z,70.40
2022-12-05T02:17:41.201Z,73.93
2022-12-05T02:20:14.040Z,77.13
2022-12-05T02:22:59.905Z,66.43
2022-12-05T02:25:36.316Z,77.43
2022-12-05T02:28:23.269Z,71.50
2022-12-05T02:31:05.673Z,82.18
2022-12-05T02:33:36.791Z,95.22
2022-12-05T02:36:07.408Z,77.38
2022-12-05T02:38:42.334Z,82.90
2022-12-05T02:41:30.959Z,74.70
2022-12-05T02:44:00.830Z,65.68
2022-12-05T02:46:30.024Z,96.72
2022-12-05T02:48:59.340Z,68.80
2022-12-05T02:51:28.461Z,59.10
2022-12-05T02:53:57.834Z,62.00
2022-12-05T02:56:25.770Z,94.40
2022-12-05T02:58:54.263Z,94.70
2022-12-05T03:01:24.017Z,71.30
2022-12-05T03:03:51.564Z,87.93
2022-12-05T03:06:22.798Z,105.93
2022-12-05T03:08:52.594Z,75.15
2022-12-05T03:11:20.007Z,64.40
2022-12-05T03:13:50.250Z,111.55
2022-12-05T03:16:21.198Z,131.68
2022-12-05T03:18:50.997Z,98.10
2022-12-05T03:21:37.893Z,86.35
2022-12-05T03:24:12.801Z,70.25
2022-12-05T03:26:46.094Z,80.60
2022-12-05T03:31:56.470Z,65.63
2022-12-05T03:34:49.928Z,58.33
2022-12-05T03:37:37.416Z,85.70
2022-12-05T03:40:21.866Z,72.78
2022-12-05T03:43:02.841Z,67.57
2022-12-05T03:45:34.389Z,68.00
2022-12-05T03:48:06.666Z,86.03
2022-12-05T03:50:35.998Z,77.30
2022-12-05T03:53:21.584Z,68.78
2022-12-05T03:55:51.854Z,79.00
2022-12-05T03:58:22.145Z,73.32
2022-12-05T04:00:51.559Z,78.05
2022-12-05T04:03:22.216Z,70.88
2022-12-05T04:05:51.725Z,86.78
2022-12-05T04:08:21.260Z,55.00
2022-12-05T04:10:50.290Z,62.50
2022-12-05T04:13:28.099Z,50.35
2022-12-05T04:16:16.609Z,53.33
2022-12-05T04:18:51.954Z,53.40
2022-12-05T04:21:38.761Z,54.22
2022-12-05T04:24:28.813Z,63.00
2022-12-05T04:27:05.004Z,71.32
2022-12-05T04:29:33.605Z,51.30
2022-12-05T04:32:04.267Z,52.25
2022-12-05T04:34:32.035Z,51.05
2022-12-05T04:37:06.731Z,48.65
2022-12-05T04:39:55.765Z,61.70
2022-12-05T04:42:26.570Z,46.33
2022-12-05T04:44:55.789Z,55.67
2022-12-05T04:47:25.426Z,49.88
2022-12-05T04:49:54.090Z,46.80
2022-12-05T04:52:22.068Z,50.97
2022-12-05T04:54:51.818Z,47.08
2022-12-05T04:57:29.256Z,75.22
2022-12-05T04:59:56.816Z,59.40
2022-12-05T05:02:34.241Z,63.70
2022-12-05T05:05:03.112Z,58.97
2022-12-05T05:07:30.346Z,56.60
2022-12-05T05:09:58.214Z,49.33
2022-12-05T05:12:25.641Z,52.20
2022-12-05T05:14:52.846Z,49.95
2022-12-05T05:17:20.023Z,43.35
2022-12-05T05:19:49.841Z,36.92
2022-12-05T05:22:17.005Z,49.22
2022-12-05T05:24:44.146Z,40.40
2022-12-05T05:27:11.340Z,44.67
2022-12-05T05:29:38.545Z,48.38
2022-12-05T05:32:05.758Z,43.58
2022-12-05T05:34:32.924Z,39.70
2022-12-05T05:37:00.157Z,39.40
2022-12-05T05:39:29.469Z,41.13
2022-12-05T05:41:56.655Z,39.08
2022-12-05T05:44:23.814Z,36.35
2022-12-05T05:46:51.047Z,35.88
2022-12-05T05:49:18.278Z,38.05
2022-12-05T05:51:45.549Z,71.20
2022-12-05T05:54:12.715Z,63.35
2022-12-05T05:56:40.765Z,47.83
2022-12-05T05:59:07.915Z,50.65
2022-12-05T06:01:35.116Z,57.10
2022-12-05T06:04:02.501Z,56.28
2022-12-05T06:06:29.822Z,59.20
2022-12-05T06:08:57.115Z,66.30
2022-12-05T06:11:26.758Z,56.65
2022-12-05T06:13:56.009Z,55.28
2022-12-05T06:16:23.927Z,67.50
2022-12-05T06:18:52.272Z,56.55
2022-12-05T06:21:19.448Z,43.30
2022-12-05T06:23:46.784Z,62.47
2022-12-05T06:26:15.192Z,48.65
2022-12-05T06:28:42.656Z,90.43
2022-12-05T06:31:10.603Z,62.38
2022-12-05T06:33:37.880Z,49.33
2022-12-05T06:36:06.973Z,53.47
2022-12-05T06:38:36.899Z,41.22
2022-12-05T06:41:08.618Z,47.25
2022-12-05T06:43:35.847Z,41.42
2022-12-05T06:46:06.833Z,50.83
2022-12-05T06:48:34.031Z,44.28
2022-12-05T06:51:01.283Z,57.05
2022-12-05T06:53:28.556Z,50.17
2022-12-05T06:55:59.759Z,60.78
2022-12-05T06:58:26.967Z,48.50
2022-12-05T07:01:12.690Z,51.53
2022-12-05T07:03:39.947Z,54.75
2022-12-05T07:06:08.260Z,45.33
2022-12-05T07:08:35.402Z,48.35
2022-12-05T07:11:03.630Z,52.50
2022-12-05T07:13:30.888Z,49.47
2022-12-05T07:15:59.083Z,38.58
2022-12-05T07:18:26.954Z,46.08
2022-12-05T07:21:11.850Z,38.72
2022-12-05T07:23:40.053Z,42.40
2022-12-05T07:26:11.986Z,48.55
2022-12-05T07:28:39.396Z,38.70
2022-12-05T07:31:08.384Z,53.30
2022-12-05T07:33:35.715Z,56.40
2022-12-05T07:36:03.469Z,39.10
2022-12-05T07:38:30.746Z,44.30
2022-12-05T07:40:58.038Z,38.95
2022-12-05T07:43:25.521Z,43.28
2022-12-05T07:45:52.802Z,49.65
2022-12-05T07:48:20.091Z,48.75
2022-12-05T07:50:47.301Z,52.95
2022-12-05T07:53:14.518Z,39.97
2022-12-05T07:55:42.066Z,49.38
2022-12-05T07:58:09.270Z,44.95
2022-12-05T08:00:36.473Z,50.10
2022-12-05T08:03:04.003Z,44.25
2022-12-05T08:05:31.146Z,42.83
2022-12-05T08:07:58.437Z,49.05
2022-12-05T08:10:26.259Z,51.35
2022-12-05T08:12:53.491Z,47.15
2022-12-05T08:15:20.713Z,33.47
2022-12-05T08:17:47.875Z,32.63
2022-12-05T08:20:15.283Z,28.70
2022-12-05T08:22:42.512Z,33.08
2022-12-05T08:25:09.944Z,35.25
2022-12-05T08:27:37.164Z,28.33
2022-12-05T08:30:04.775Z,28.88
2022-12-05T08:32:32.047Z,27.10
2022-12-05T08:34:59.206Z,24.50
2022-12-05T08:37:26.421Z,31.10
2022-12-05T08:39:53.552Z,24.13
2022-12-05T08:42:22.814Z,25.70
2022-12-05T08:44:51.405Z,27.17
2022-12-05T08:47:19.035Z,23.73
2022-12-05T08:49:46.220Z,33.20
2022-12-05T08:52:13.454Z,58.30
2022-12-05T08:54:40.730Z,41.85
2022-12-05T08:57:07.930Z,31.80
2022-12-05T08:59:35.168Z,28.92
2022-12-05T09:02:02.386Z,25.48
2022-12-05T09:04:29.566Z,27.48
2022-12-05T09:06:56.734Z,32.70
2022-12-05T09:09:23.887Z,29.02
2022-12-05T09:11:51.208Z,27.67
2022-12-05T09:14:18.718Z,26.80
2022-12-05T09:16:47.414Z,30.98
2022-12-05T09:19:15.982Z,28.45
2022-12-05T09:21:43.672Z,27.90
2022-12-05T09:24:12.008Z,23.92
2022-12-05T09:26:39.949Z,22.75
2022-12-05T09:29:08.957Z,19.65
2022-12-05T09:31:43.073Z,17.13
2022-12-05T09:34:10.817Z,27.92
2022-12-05T09:36:38.011Z,19.83
2022-12-05T09:39:06.263Z,18.08
2022-12-05T09:42:10.711Z,18.00
2022-12-05T09:44:42.060Z,15.80
2022-12-05T09:47:18.476Z,15.50
2022-12-05T09:49:51.718Z,16.25
2022-12-05T09:52:24.557Z,15.70
2022-12-05T09:54:53.466Z,16.75
2022-12-05T09:57:30.418Z,14.23
2022-12-05T10:00:01.977Z,17.67
2022-12-05T10:02:49.463Z,15.80
2022-12-05T10:05:32.392Z,15.55
2022-12-05T10:08:05.538Z,15.07
2022-12-05T10:10:47.937Z,19.10
2022-12-05T10:13:34.003Z,17.50
2022-12-05T10:16:04.091Z,14.65
2022-12-05T10:18:42.510Z,16.67
2022-12-05T10:21:10.160Z,39.10
2022-12-05T10:23:57.518Z,17.10
2022-12-05T10:26:27.970Z,15.75
2022-12-05T10:28:58.815Z,12.50
2022-12-05T10:31:31.712Z,13.65
2022-12-05T10:34:11.603Z,14.43
2022-12-05T10:36:38.819Z,12.23
2022-12-05T10:39:11.256Z,12.65
2022-12-05T10:41:38.736Z,15.07
2022-12-05T10:44:06.084Z,15.90
2022-12-05T10:46:33.345Z,15.60
2022-12-05T10:49:00.807Z,12.55
2022-12-05T10:51:35.659Z,14.63
2022-12-05T10:54:14.324Z,14.18
2022-12-05T10:56:41.653Z,18.60
2022-12-05T10:59:10.355Z,13.60
2022-12-05T11:01:38.977Z,15.30
2022-12-05T11:04:13.870Z,14.77
2022-12-05T11:06:49.619Z,12.88
2022-12-05T11:09:19.018Z,14.43
2022-12-05T11:11:58.282Z,14.50
2022-12-05T11:14:27.251Z,16.63
2022-12-05T11:16:55.988Z,20.40
2022-12-05T11:19:23.305Z,16.10
2022-12-05T11:21:51.076Z,18.50
2022-12-05T11:24:32.187Z,19.30
2022-12-05T11:27:00.940Z,14.45
2022-12-05T11:29:30.956Z,20.42
2022-12-05T11:31:58.424Z,17.50
2022-12-05T11:34:28.989Z,16.38
2022-12-05T11:37:02.578Z,17.10
2022-12-05T11:39:29.783Z,16.83
2022-12-05T11:41:59.741Z,23.13
2022-12-05T11:44:44.969Z,19.80
2022-12-05T11:47:30.734Z,21.33
2022-12-05T11:50:10.176Z,22.55
2022-12-05T11:52:49.445Z,17.98
2022-12-05T11:55:22.938Z,18.38
2022-12-05T11:57:56.315Z,21.38
2022-12-05T12:00:25.826Z,15.60
2022-12-05T12:02:56.174Z,15.93
2022-12-05T12:05:42.226Z,13.23
2022-12-05T12:08:18.599Z,14.48
2022-12-05T12:10:56.975Z,12.77
2022-12-05T12:13:44.306Z,12.07
2022-12-05T12:16:16.405Z,13.32
2022-12-05T12:18:43.561Z,14.32
2022-12-05T12:21:23.972Z,17.40
2022-12-05T12:24:00.427Z,13.88
2022-12-05T12:26:39.994Z,14.60
2022-12-05T12:29:21.903Z,16.25
2022-12-05T12:31:59.161Z,10.82
2022-12-05T12:34:35.614Z,15.80
2022-12-05T12:37:03.027Z,11.02
2022-12-05T12:39:50.523Z,22.75
2022-12-05T12:42:20.667Z,14.65
2022-12-05T12:44:53.756Z,12.88
2022-12-05T12:47:21.062Z,8.00
2022-12-05T12:49:54.230Z,9.80
2022-12-05T12:52:25.631Z,8.75
2022-12-05T12:55:08.009Z,12.15
2022-12-05T12:57:46.674Z,12.73
2022-12-05T13:00:32.406Z,11.45
2022-12-05T13:03:09.359Z,12.32
2022-12-05T13:05:36.473Z,13.77
2022-12-05T13:08:03.746Z,11.70
2022-12-05T13:10:38.031Z,8.95
2022-12-05T13:13:07.182Z,7.57
2022-12-05T13:15:37.388Z,9.90
2022-12-05T13:18:05.344Z,10.45
2022-12-05T13:20:34.697Z,9.68
2022-12-05T13:23:07.718Z,14.63
2022-12-05T13:28:04.871Z,8.73
2022-12-05T13:30:33.534Z,9.38
2022-12-05T13:33:04.751Z,7.55
2022-12-05T13:35:50.597Z,5.07
2022-12-05T13:38:47.031Z,5.00
2022-12-05T13:41:33.446Z,5.40
2022-12-05T13:44:06.679Z,4.40
2022-12-05T13:46:35.337Z,5.60
2022-12-05T13:49:07.145Z,4.28
2022-12-05T13:51:37.652Z,4.32
2022-12-05T13:54:08.188Z,4.68
2022-12-05T13:56:50.122Z,4.28
2022-12-05T13:59:36.884Z,4.63
2022-12-05T14:02:24.239Z,4.43
2022-12-05T14:04:51.701Z,5.07
2022-12-05T14:07:37.708Z,4.60
2022-12-05T14:10:05.243Z,5.03
2022-12-05T14:12:46.624Z,7.95
2022-12-05T14:15:27.123Z,5.60
2022-12-05T14:18:17.377Z,5.20
2022-12-05T14:21:05.900Z,5.20
2022-12-05T14:23:45.484Z,7.30
2022-12-05T14:26:21.095Z,7.10
2022-12-05T14:28:54.094Z,8.93
2022-12-05T14:31:27.892Z,6.72
2022-12-05T14:34:16.176Z,7.82
2022-12-05T14:36:56.852Z,6.65
2022-12-05T14:39:31.369Z,7.05
2022-12-05T14:41:59.868Z,8.55
2022-12-05T14:44:32.078Z,9.60
2022-12-05T14:47:05.680Z,6.85
2022-12-05T14:49:51.754Z,9.27
2022-12-05T14:52:22.613Z,9.13
2022-12-05T14:54:51.964Z,9.68
2022-12-05T14:57:20.382Z,10.68
2022-12-05T14:59:52.670Z,8.32
2022-12-05T15:02:23.098Z,9.20
2022-12-05T15:04:56.927Z,10.93
2022-12-05T15:07:29.034Z,8.75
2022-12-05T15:09:58.431Z,9.70
2022-12-05T15:12:25.819Z,9.23
2022-12-05T15:15:05.277Z,12.18
2022-12-05T15:17:38.760Z,10.75
2022-12-05T15:22:36.386Z,9.35
2022-12-05T15:25:16.989Z,9.70
2022-12-05T15:27:52.411Z,10.77
2022-12-05T15:30:19.815Z,11.00
2022-12-05T15:32:47.351Z,13.05
2022-12-05T15:35:15.722Z,10.73
2022-12-05T15:37:58.374Z,10.57
2022-12-05T15:40:26.249Z,12.88
2022-12-05T15:42:54.711Z,17.95
2022-12-05T15:45:23.874Z,46.97
2022-12-05T15:47:52.673Z,29.17
2022-12-05T15:50:29.073Z,21.98
2022-12-05T15:52:56.559Z,32.00
2022-12-05T15:55:30.866Z,33.50
2022-12-05T15:58:08.126Z,26.63
2022-12-05T16:00:39.617Z,18.55
2022-12-05T16:03:07.119Z,13.30
2022-12-05T16:05:42.765Z,15.70
2022-12-05T16:08:10.374Z,12.73
2022-12-05T16:10:37.730Z,11.88
2022-12-05T16:13:06.707Z,14.13
2022-12-05T16:15:34.580Z,11.00
2022-12-05T16:18:03.402Z,21.20
2022-12-05T16:20:32.949Z,14.80
2022-12-05T16:23:05.332Z,12.35
2022-12-05T16:25:36.749Z,12.85
2022-12-05T16:28:15.509Z,14.63
2022-12-05T16:30:53.776Z,13.15
2022-12-05T16:33:21.285Z,14.05
2022-12-05T16:35:50.453Z,13.43
2022-12-05T16:38:17.822Z,13.00
2022-12-05T16:40:52.213Z,13.32
2022-12-05T16:43:27.618Z,12.70
2022-12-05T16:45:56.362Z,12.55
2022-12-05T16:48:23.697Z,11.65
2022-12-05T16:50:54.818Z,14.27
2022-12-05T16:53:28.391Z,13.52
2022-12-05T16:55:55.656Z,15.77
2022-12-05T16:58:24.674Z,11.90
2022-12-05T17:00:52.257Z,17.15
2022-12-05T17:03:34.475Z,14.35
2022-12-05T17:06:02.342Z,16.90
2022-12-05T17:08:29.602Z,15.85
2022-12-05T17:10:56.795Z,16.45
2022-12-05T17:13:24.589Z,21.17
2022-12-05T17:15:51.847Z,22.38
2022-12-05T17:18:28.017Z,26.02
2022-12-05T17:20:59.627Z,22.05
2022-12-05T17:23:27.349Z,23.45
2022-12-05T17:25:55.739Z,25.63
2022-12-05T17:28:23.279Z,24.63
2022-12-05T17:30:50.998Z,26.48
2022-12-05T17:33:19.346Z,33.22
2022-12-05T17:35:47.011Z,20.30
2022-12-05T17:38:14.424Z,19.88
2022-12-05T17:40:42.148Z,21.75
2022-12-05T17:43:12.651Z,19.20
2022-12-05T17:45:39.932Z,24.25
2022-12-05T17:48:07.106Z,20.77
2022-12-05T17:50:34.335Z,17.30
2022-12-05T17:53:07.304Z,20.80
2022-12-05T17:55:34.849Z,23.35
2022-12-05T17:58:02.058Z,25.42
2022-12-05T18:00:29.336Z,22.55
2022-12-05T18:02:56.786Z,24.35
2022-12-05T18:05:24.232Z,27.52
2022-12-05T18:07:51.591Z,26.95
2022-12-05T18:10:21.023Z,18.17
2022-12-05T18:12:49.088Z,28.90
2022-12-05T18:15:16.724Z,21.52
2022-12-05T18:17:44.212Z,39.97
2022-12-05T18:20:12.674Z,30.45
2022-12-05T18:22:40.023Z,50.67
2022-12-05T18:25:07.449Z,29.88
2022-12-05T18:27:35.595Z,27.00
2022-12-05T18:30:03.691Z,24.02
2022-12-05T18:32:30.997Z,29.38
2022-12-05T18:34:59.209Z,25.52
2022-12-05T18:37:28.195Z,32.60
2022-12-05T18:39:56.576Z,31.23
2022-12-05T18:42:24.102Z,24.27
2022-12-05T18:44:52.478Z,30.92
2022-12-05T18:47:20.351Z,48.65
2022-12-05T18:49:47.597Z,41.22
2022-12-05T18:52:14.816Z,45.00
2022-12-05T18:54:42.054Z,39.38
2022-12-05T18:57:09.223Z,35.63
2022-12-05T18:59:36.458Z,42.15
2022-12-05T19:02:05.367Z,41.42
2022-12-05T19:04:32.733Z,35.25
2022-12-05T19:07:01.923Z,32.38
2022-12-05T19:09:30.665Z,32.40
2022-12-05T19:11:59.563Z,39.10
2022-12-05T19:14:27.703Z,28.60
2022-12-05T19:16:59.993Z,24.80
2022-12-05T19:19:28.290Z,22.60
2022-12-05T19:21:55.743Z,24.33
2022-12-05T19:24:23.025Z,31.52
2022-12-05T19:26:50.323Z,28.70
2022-12-05T19:29:18.108Z,24.88
2022-12-05T19:31:45.676Z,24.60
2022-12-05T19:34:12.991Z,18.88
2022-12-05T19:36:41.735Z,19.05
2022-12-05T19:39:11.082Z,18.67
2022-12-05T19:41:38.366Z,19.02
2022-12-05T19:44:05.893Z,19.38
2022-12-05T19:46:33.767Z,19.13
2022-12-05T19:49:03.006Z,20.80
2022-12-05T19:51:33.974Z,16.08
2022-12-05T19:54:01.820Z,14.43
2022-12-05T19:56:30.709Z,17.20
2022-12-05T19:58:59.495Z,21.25
2022-12-05T20:01:31.492Z,31.33
2022-12-05T20:03:59.907Z,22.30
2022-12-05T20:06:30.744Z,21.60
2022-12-05T20:08:59.101Z,20.73
2022-12-05T20:11:26.516Z,21.05
2022-12-05T20:13:54.881Z,25.77
2022-12-05T20:16:23.396Z,25.65
2022-12-05T20:18:51.071Z,29.45
2022-12-05T20:21:20.415Z,45.03
2022-12-05T20:23:47.919Z,31.77
2022-12-05T20:26:22.832Z,27.95
2022-12-05T20:28:50.456Z,16.55
2022-12-05T20:31:19.537Z,19.35
2022-12-05T20:33:47.179Z,19.20
2022-12-05T20:36:16.060Z,20.55
2022-12-05T20:38:43.600Z,22.80
2022-12-05T20:41:12.294Z,23.38
2022-12-05T20:43:39.588Z,29.55
2022-12-05T20:46:08.693Z,28.10
2022-12-05T20:48:36.854Z,20.83
2022-12-05T20:51:06.132Z,22.85
2022-12-05T20:53:35.107Z,34.08
2022-12-05T20:56:06.198Z,27.63
2022-12-05T20:58:33.633Z,19.25
2022-12-05T21:01:01.983Z,18.38
2022-12-05T21:03:29.303Z,21.48
2022-12-05T21:05:56.926Z,20.92
2022-12-05T21:08:24.709Z,18.42
2022-12-05T21:10:53.165Z,16.77
2022-12-05T21:13:20.629Z,22.42
2022-12-05T21:15:48.357Z,18.02
2022-12-05T21:18:15.702Z,19.48
2022-12-05T21:20:42.885Z,20.75
2022-12-05T21:23:11.182Z,20.88
2022-12-05T21:25:38.588Z,19.27
2022-12-05T21:28:06.659Z,17.17
2022-12-05T21:30:35.242Z,18.85
2022-12-05T21:33:05.477Z,21.38
2022-12-05T21:35:32.754Z,34.78
2022-12-05T21:38:01.278Z,31.90
2022-12-05T21:40:29.580Z,23.52
2022-12-05T21:42:56.874Z,49.72
2022-12-05T21:45:24.117Z,19.73
2022-12-05T21:47:51.798Z,27.52
2022-12-05T21:50:19.115Z,25.98
2022-12-05T21:52:46.368Z,21.35
2022-12-05T21:55:13.610Z,27.75
2022-12-05T21:57:40.958Z,26.58
2022-12-05T22:00:08.920Z,19.50
2022-12-05T22:02:36.490Z,21.23
2022-12-05T22:05:04.144Z,19.45
2022-12-05T22:07:31.422Z,23.52
2022-12-05T22:09:59.046Z,32.17
2022-12-05T22:12:26.577Z,24.60
2022-12-05T22:14:53.801Z,22.67
2022-12-05T22:17:21.068Z,22.38
2022-12-05T22:19:48.277Z,25.38
2022-12-05T22:22:15.870Z,24.50
2022-12-05T22:24:43.053Z,22.52
2022-12-05T22:27:10.403Z,26.10
2022-12-05T22:29:37.736Z,27.05
2022-12-05T22:32:05.187Z,27.52
2022-12-05T22:34:32.529Z,26.85
2022-12-05T22:36:59.898Z,26.98
2022-12-05T22:39:27.574Z,25.75
2022-12-05T22:41:54.801Z,24.58
2022-12-05T22:44:22.109Z,26.52
2022-12-05T22:46:49.400Z,24.23
2022-12-05T22:49:19.948Z,26.98
2022-12-05T22:51:49.538Z,17.08
2022-12-05T22:54:16.790Z,27.90
2022-12-05T22:56:44.015Z,25.23
2022-12-05T22:59:14.738Z,22.83
2022-12-05T23:01:42.289Z,18.77
2022-12-05T23:04:13.131Z,18.20
2022-12-05T23:06:43.052Z,22.92
2022-12-05T23:09:11.019Z,22.58
2022-12-05T23:11:39.944Z,17.58
2022-12-05T23:14:07.326Z,27.38
2022-12-05T23:16:35.081Z,23.40
2022-12-05T23:19:03.817Z,20.35
2022-12-05T23:21:36.531Z,19.60
2022-12-05T23:24:04.922Z,18.15
2022-12-05T23:26:36.496Z,17.95
2022-12-05T23:29:04.511Z,17.90
2022-12-05T23:31:31.973Z,18.42
2022-12-05T23:34:03.141Z,18.75
2022-12-05T23:36:31.425Z,13.38
2022-12-05T23:38:58.736Z,17.63
2022-12-05T23:41:26.387Z,14.18
2022-12-05T23:43:54.179Z,16.60
2022-12-05T23:46:23.498Z,19.92
2022-12-05T23:48:51.357Z,19.98
2022-12-05T23:51:20.058Z,20.83
2022-12-05T23:53:48.290Z,16.77
2022-12-05T23:56:17.066Z,13.07
2022-12-05T23:58:44.811Z,14.70
